sensor_id;sensor_type;location;lat;lon;timestamp;P1;durP1;ratioP1;P2;durP2;ratioP2
5981;SDS011;3018;48.730;9.336;2023-02-15T00:01:16;23.10;;;15.38;;
5981;SDS011;3018;48.730;9.336;2023-02-15T00:03:42;23.23;;;15.50;;
5981;SDS011;3018;48.730;9.336;2023-02-15T00:06:09;22.30;;;16.10;;
5981;SDS011;3018;48.730;9.336;2023-02-15T00:08:36;21.23;;;15.43;;
5981;SDS011;3018;48.730;9.336;2023-02-15T00:11:05;23.80;;;15.45;;
5981;SDS011;3018;48.730;9.336;2023-02-15T00:13:32;22.05;;;15.20;;
5981;SDS011;3018;48.730;9.336;2023-02-15T00:16:00;23.92;;;15.32;;
5981;SDS011;3018;48.730;9.336;2023-02-15T00:18:27;22.67;;;16.23;;
5981;SDS011;3018;48.730;9.336;2023-02-15T00:20:53;21.48;;;15.40;;
5981;SDS011;3018;48.730;9.336;2023-02-15T00:23:20;24.67;;;15.40;;
5981;SDS011;3018;48.730;9.336;2023-02-15T00:25:47;24.42;;;15.48;;
5981;SDS011;3018;48.730;9.336;2023-02-15T00:28:13;23.23;;;15.73;;
5981;SDS011;3018;48.730;9.336;2023-02-15T00:30:39;21.92;;;15.18;;
5981;SDS011;3018;48.730;9.336;2023-02-15T00:33:06;20.95;;;14.63;;
5981;SDS011;3018;48.730;9.336;2023-02-15T00:35:32;21.58;;;14.80;;
5981;SDS011;3018;48.730;9.336;2023-02-15T00:37:58;23.10;;;14.95;;
5981;SDS011;3018;48.730;9.336;2023-02-15T00:40:26;21.15;;;14.73;;
5981;SDS011;3018;48.730;9.336;2023-02-15T00:42:52;23.85;;;14.93;;
5981;SDS011;3018;48.730;9.336;2023-02-15T00:45:18;20.75;;;14.65;;
5981;SDS011;3018;48.730;9.336;2023-02-15T00:47:46;21.58;;;15.20;;
5981;SDS011;3018;48.730;9.336;2023-02-15T00:50:12;20.95;;;15.02;;
5981;SDS011;3018;48.730;9.336;2023-02-15T00:52:38;21.58;;;15.65;;
5981;SDS011;3018;48.730;9.336;2023-02-15T00:55:05;21.02;;;15.02;;
5981;SDS011;3018;48.730;9.336;2023-02-15T00:57:33;22.55;;;14.93;;
5981;SDS011;3018;48.730;9.336;2023-02-15T00:59:59;26.60;;;16.15;;
5981;SDS011;3018;48.730;9.336;2023-02-15T01:02:25;21.70;;;15.23;;
5981;SDS011;3018;48.730;9.336;2023-02-15T01:04:51;21.05;;;15.07;;
5981;SDS011;3018;48.730;9.336;2023-02-15T01:07:18;21.55;;;15.70;;
5981;SDS011;3018;48.730;9.336;2023-02-15T01:09:44;26.10;;;15.70;;
5981;SDS011;3018;48.730;9.336;2023-02-15T01:12:10;21.42;;;14.57;;
5981;SDS011;3018;48.730;9.336;2023-02-15T01:14:38;23.05;;;16.40;;
5981;SDS011;3018;48.730;9.336;2023-02-15T01:17:04;22.10;;;14.50;;
5981;SDS011;3018;48.730;9.336;2023-02-15T01:19:30;23.58;;;15.13;;
5981;SDS011;3018;48.730;9.336;2023-02-15T01:21:56;23.05;;;15.65;;
5981;SDS011;3018;48.730;9.336;2023-02-15T01:24:23;29.83;;;15.93;;
5981;SDS011;3018;48.730;9.336;2023-02-15T01:26:49;22.90;;;14.55;;
5981;SDS011;3018;48.730;9.336;2023-02-15T01:29:15;23.83;;;15.73;;
5981;SDS011;3018;48.730;9.336;2023-02-15T01:31:43;28.02;;;16.33;;
5981;SDS011;3018;48.730;9.336;2023-02-15T01:34:09;21.10;;;15.35;;
5981;SDS011;3018;48.730;9.336;2023-02-15T01:36:35;21.50;;;15.50;;
5981;SDS011;3018;48.730;9.336;2023-02-15T01:39:02;23.65;;;15.68;;
5981;SDS011;3018;48.730;9.336;2023-02-15T01:41:28;22.80;;;15.77;;
5981;SDS011;3018;48.730;9.336;2023-02-15T01:43:55;20.33;;;14.70;;
5981;SDS011;3018;48.730;9.336;2023-02-15T01:46:23;21.75;;;15.00;;
5981;SDS011;3018;48.730;9.336;2023-02-15T01:48:52;23.27;;;14.10;;
5981;SDS011;3018;48.730;9.336;2023-02-15T01:51:19;20.27;;;14.55;;
5981;SDS011;3018;48.730;9.336;2023-02-15T01:53:47;21.73;;;14.95;;
5981;SDS011;3018;48.730;9.336;2023-02-15T01:56:15;23.52;;;15.75;;
5981;SDS011;3018;48.730;9.336;2023-02-15T01:58:43;22.98;;;14.85;;
5981;SDS011;3018;48.730;9.336;2023-02-15T02:01:10;24.70;;;16.23;;
5981;SDS011;3018;48.730;9.336;2023-02-15T02:03:38;24.05;;;16.02;;
5981;SDS011;3018;48.730;9.336;2023-02-15T02:06:08;23.88;;;15.82;;
5981;SDS011;3018;48.730;9.336;2023-02-15T02:08:35;25.02;;;16.38;;
5981;SDS011;3018;48.730;9.336;2023-02-15T02:11:01;23.83;;;16.08;;
5981;SDS011;3018;48.730;9.336;2023-02-15T02:13:28;23.05;;;16.50;;
5981;SDS011;3018;48.730;9.336;2023-02-15T02:15:56;26.48;;;15.75;;
5981;SDS011;3018;48.730;9.336;2023-02-15T02:18:28;28.42;;;17.30;;
5981;SDS011;3018;48.730;9.336;2023-02-15T02:21:02;24.65;;;17.05;;
5981;SDS011;3018;48.730;9.336;2023-02-15T02:23:42;25.35;;;16.77;;
5981;SDS011;3018;48.730;9.336;2023-02-15T02:26:31;23.98;;;16.38;;
5981;SDS011;3018;48.730;9.336;2023-02-15T02:32:06;25.20;;;17.48;;
5981;SDS011;3018;48.730;9.336;2023-02-15T02:34:36;25.17;;;17.13;;
5981;SDS011;3018;48.730;9.336;2023-02-15T02:37:08;24.85;;;16.40;;
5981;SDS011;3018;48.730;9.336;2023-02-15T02:39:39;26.25;;;17.02;;
5981;SDS011;3018;48.730;9.336;2023-02-15T02:42:08;27.55;;;18.02;;
5981;SDS011;3018;48.730;9.336;2023-02-15T02:44:38;22.17;;;15.52;;
5981;SDS011;3018;48.730;9.336;2023-02-15T02:47:09;28.70;;;17.25;;
5981;SDS011;3018;48.730;9.336;2023-02-15T02:49:38;23.70;;;17.38;;
5981;SDS011;3018;48.730;9.336;2023-02-15T02:52:06;25.65;;;17.02;;
5981;SDS011;3018;48.730;9.336;2023-02-15T02:54:32;24.23;;;16.48;;
5981;SDS011;3018;48.730;9.336;2023-02-15T02:57:01;24.77;;;16.10;;
5981;SDS011;3018;48.730;9.336;2023-02-15T02:59:29;25.88;;;17.02;;
5981;SDS011;3018;48.730;9.336;2023-02-15T03:01:57;29.05;;;17.42;;
5981;SDS011;3018;48.730;9.336;2023-02-15T03:04:26;27.52;;;19.23;;
5981;SDS011;3018;48.730;9.336;2023-02-15T03:06:57;26.25;;;18.17;;
5981;SDS011;3018;48.730;9.336;2023-02-15T03:09:25;27.92;;;18.48;;
5981;SDS011;3018;48.730;9.336;2023-02-15T03:12:06;28.50;;;18.60;;
5981;SDS011;3018;48.730;9.336;2023-02-15T03:14:32;28.38;;;19.55;;
5981;SDS011;3018;48.730;9.336;2023-02-15T03:16:59;30.35;;;19.25;;
5981;SDS011;3018;48.730;9.336;2023-02-15T03:19:26;28.25;;;18.38;;
5981;SDS011;3018;48.730;9.336;2023-02-15T03:21:57;31.17;;;19.73;;
5981;SDS011;3018;48.730;9.336;2023-02-15T03:24:29;27.65;;;18.05;;
5981;SDS011;3018;48.730;9.336;2023-02-15T03:26:57;25.83;;;17.67;;
5981;SDS011;3018;48.730;9.336;2023-02-15T03:29:25;29.05;;;17.85;;
5981;SDS011;3018;48.730;9.336;2023-02-15T03:31:53;27.67;;;18.08;;
5981;SDS011;3018;48.730;9.336;2023-02-15T03:34:20;32.67;;;19.00;;
5981;SDS011;3018;48.730;9.336;2023-02-15T03:36:49;24.63;;;18.02;;
5981;SDS011;3018;48.730;9.336;2023-02-15T03:39:20;29.42;;;18.83;;
5981;SDS011;3018;48.730;9.336;2023-02-15T03:41:49;29.15;;;19.55;;
5981;SDS011;3018;48.730;9.336;2023-02-15T03:44:18;28.50;;;18.80;;
5981;SDS011;3018;48.730;9.336;2023-02-15T03:46:47;30.77;;;19.27;;
5981;SDS011;3018;48.730;9.336;2023-02-15T03:49:15;28.77;;;18.55;;
5981;SDS011;3018;48.730;9.336;2023-02-15T03:51:44;29.05;;;18.25;;
5981;SDS011;3018;48.730;9.336;2023-02-15T03:54:11;31.15;;;19.02;;
5981;SDS011;3018;48.730;9.336;2023-02-15T03:56:41;27.13;;;17.70;;
5981;SDS011;3018;48.730;9.336;2023-02-15T03:59:27;26.92;;;18.77;;
5981;SDS011;3018;48.730;9.336;2023-02-15T04:02:12;31.83;;;19.73;;
5981;SDS011;3018;48.730;9.336;2023-02-15T04:04:43;28.48;;;18.42;;
5981;SDS011;3018;48.730;9.336;2023-02-15T04:07:09;26.90;;;18.98;;
5981;SDS011;3018;48.730;9.336;2023-02-15T04:09:36;29.77;;;19.75;;
5981;SDS011;3018;48.730;9.336;2023-02-15T04:12:21;28.92;;;18.95;;
5981;SDS011;3018;48.730;9.336;2023-02-15T04:14:48;31.38;;;20.20;;
5981;SDS011;3018;48.730;9.336;2023-02-15T04:17:31;28.48;;;18.85;;
5981;SDS011;3018;48.730;9.336;2023-02-15T04:19:58;28.55;;;19.02;;
5981;SDS011;3018;48.730;9.336;2023-02-15T04:22:42;27.73;;;17.75;;
5981;SDS011;3018;48.730;9.336;2023-02-15T04:25:26;28.38;;;18.38;;
5981;SDS011;3018;48.730;9.336;2023-02-15T04:27:54;28.95;;;19.73;;
5981;SDS011;3018;48.730;9.336;2023-02-15T04:30:22;30.88;;;20.63;;
5981;SDS011;3018;48.730;9.336;2023-02-15T04:32:48;30.13;;;20.05;;
5981;SDS011;3018;48.730;9.336;2023-02-15T04:35:15;30.23;;;20.35;;
5981;SDS011;3018;48.730;9.336;2023-02-15T04:37:41;30.90;;;19.90;;
5981;SDS011;3018;48.730;9.336;2023-02-15T04:40:08;29.17;;;19.55;;
5981;SDS011;3018;48.730;9.336;2023-02-15T04:42:35;32.45;;;20.08;;
5981;SDS011;3018;48.730;9.336;2023-02-15T04:45:03;28.60;;;18.98;;
5981;SDS011;3018;48.730;9.336;2023-02-15T04:47:29;28.48;;;18.83;;
5981;SDS011;3018;48.730;9.336;2023-02-15T04:49:55;26.67;;;18.10;;
5981;SDS011;3018;48.730;9.336;2023-02-15T04:52:21;30.38;;;19.98;;
5981;SDS011;3018;48.730;9.336;2023-02-15T04:54:48;26.70;;;18.42;;
5981;SDS011;3018;48.730;9.336;2023-02-15T04:57:14;31.30;;;18.52;;
5981;SDS011;3018;48.730;9.336;2023-02-15T04:59:40;27.95;;;18.38;;
5981;SDS011;3018;48.730;9.336;2023-02-15T05:02:08;26.15;;;17.85;;
5981;SDS011;3018;48.730;9.336;2023-02-15T05:04:34;24.02;;;17.00;;
5981;SDS011;3018;48.730;9.336;2023-02-15T05:07:01;26.98;;;17.42;;
5981;SDS011;3018;48.730;9.336;2023-02-15T05:09:27;29.27;;;17.75;;
5981;SDS011;3018;48.730;9.336;2023-02-15T05:11:53;26.77;;;17.17;;
5981;SDS011;3018;48.730;9.336;2023-02-15T05:14:19;27.42;;;17.52;;
5981;SDS011;3018;48.730;9.336;2023-02-15T05:16:46;30.38;;;19.25;;
5981;SDS011;3018;48.730;9.336;2023-02-15T05:19:13;30.52;;;19.30;;
5981;SDS011;3018;48.730;9.336;2023-02-15T05:21:40;30.73;;;19.85;;
5981;SDS011;3018;48.730;9.336;2023-02-15T05:24:06;26.33;;;19.20;;
5981;SDS011;3018;48.730;9.336;2023-02-15T05:26:53;28.38;;;18.15;;
5981;SDS011;3018;48.730;9.336;2023-02-15T05:29:37;26.60;;;17.65;;
5981;SDS011;3018;48.730;9.336;2023-02-15T05:32:03;25.70;;;17.23;;
5981;SDS011;3018;48.730;9.336;2023-02-15T05:34:31;28.02;;;18.73;;
5981;SDS011;3018;48.730;9.336;2023-02-15T05:36:57;29.25;;;17.60;;
5981;SDS011;3018;48.730;9.336;2023-02-15T05:39:23;27.58;;;17.73;;
5981;SDS011;3018;48.730;9.336;2023-02-15T05:41:50;26.25;;;17.20;;
5981;SDS011;3018;48.730;9.336;2023-02-15T05:44:16;25.77;;;17.38;;
5981;SDS011;3018;48.730;9.336;2023-02-15T05:46:42;31.17;;;18.17;;
5981;SDS011;3018;48.730;9.336;2023-02-15T05:49:08;30.15;;;17.55;;
5981;SDS011;3018;48.730;9.336;2023-02-15T05:51:36;33.35;;;18.55;;
5981;SDS011;3018;48.730;9.336;2023-02-15T05:54:02;28.92;;;17.50;;
5981;SDS011;3018;48.730;9.336;2023-02-15T05:56:28;27.73;;;17.52;;
5981;SDS011;3018;48.730;9.336;2023-02-15T05:58:55;31.10;;;17.35;;
5981;SDS011;3018;48.730;9.336;2023-02-15T06:01:21;28.08;;;17.52;;
5981;SDS011;3018;48.730;9.336;2023-02-15T06:03:47;28.27;;;17.75;;
5981;SDS011;3018;48.730;9.336;2023-02-15T06:06:14;26.00;;;17.55;;
5981;SDS011;3018;48.730;9.336;2023-02-15T06:08:42;26.38;;;17.90;;
5981;SDS011;3018;48.730;9.336;2023-02-15T06:11:08;25.65;;;17.08;;
5981;SDS011;3018;48.730;9.336;2023-02-15T06:13:34;26.05;;;17.45;;
5981;SDS011;3018;48.730;9.336;2023-02-15T06:16:02;25.45;;;17.42;;
5981;SDS011;3018;48.730;9.336;2023-02-15T06:18:28;26.60;;;16.85;;
5981;SDS011;3018;48.730;9.336;2023-02-15T06:20:54;25.50;;;17.20;;
5981;SDS011;3018;48.730;9.336;2023-02-15T06:23:21;25.20;;;17.38;;
5981;SDS011;3018;48.730;9.336;2023-02-15T06:25:48;27.55;;;17.95;;
5981;SDS011;3018;48.730;9.336;2023-02-15T06:28:14;27.17;;;18.23;;
5981;SDS011;3018;48.730;9.336;2023-02-15T06:30:41;28.50;;;17.73;;
5981;SDS011;3018;48.730;9.336;2023-02-15T06:33:07;27.98;;;16.77;;
5981;SDS011;3018;48.730;9.336;2023-02-15T06:35:33;31.90;;;19.35;;
5981;SDS011;3018;48.730;9.336;2023-02-15T06:37:59;25.88;;;16.90;;
5981;SDS011;3018;48.730;9.336;2023-02-15T06:40:26;28.58;;;18.13;;
5981;SDS011;3018;48.730;9.336;2023-02-15T06:42:53;31.02;;;19.17;;
5981;SDS011;3018;48.730;9.336;2023-02-15T06:45:19;32.80;;;17.40;;
5981;SDS011;3018;48.730;9.336;2023-02-15T06:47:46;27.27;;;17.20;;
5981;SDS011;3018;48.730;9.336;2023-02-15T06:50:12;27.25;;;17.85;;
5981;SDS011;3018;48.730;9.336;2023-02-15T06:52:39;27.50;;;17.08;;
5981;SDS011;3018;48.730;9.336;2023-02-15T06:55:05;27.95;;;17.70;;
5981;SDS011;3018;48.730;9.336;2023-02-15T06:57:32;28.67;;;17.70;;
5981;SDS011;3018;48.730;9.336;2023-02-15T06:59:59;32.03;;;18.60;;
5981;SDS011;3018;48.730;9.336;2023-02-15T07:02:26;28.95;;;17.42;;
5981;SDS011;3018;48.730;9.336;2023-02-15T07:04:52;28.83;;;18.23;;
5981;SDS011;3018;48.730;9.336;2023-02-15T07:07:18;30.77;;;19.55;;
5981;SDS011;3018;48.730;9.336;2023-02-15T07:09:45;32.50;;;19.90;;
5981;SDS011;3018;48.730;9.336;2023-02-15T07:12:11;28.67;;;19.00;;
5981;SDS011;3018;48.730;9.336;2023-02-15T07:14:54;32.85;;;18.73;;
5981;SDS011;3018;48.730;9.336;2023-02-15T07:17:24;27.83;;;17.80;;
5981;SDS011;3018;48.730;9.336;2023-02-15T07:19:53;31.65;;;18.98;;
5981;SDS011;3018;48.730;9.336;2023-02-15T07:22:19;33.75;;;19.15;;
5981;SDS011;3018;48.730;9.336;2023-02-15T07:24:45;25.20;;;16.73;;
5981;SDS011;3018;48.730;9.336;2023-02-15T07:27:12;25.45;;;17.35;;
5981;SDS011;3018;48.730;9.336;2023-02-15T07:29:38;29.63;;;17.30;;
5981;SDS011;3018;48.730;9.336;2023-02-15T07:32:04;27.50;;;17.65;;
5981;SDS011;3018;48.730;9.336;2023-02-15T07:34:32;33.22;;;17.65;;
5981;SDS011;3018;48.730;9.336;2023-02-15T07:36:58;30.13;;;18.20;;
5981;SDS011;3018;48.730;9.336;2023-02-15T07:39:24;28.10;;;17.15;;
5981;SDS011;3018;48.730;9.336;2023-02-15T07:41:51;26.20;;;17.80;;
5981;SDS011;3018;48.730;9.336;2023-02-15T07:44:17;26.30;;;17.67;;
5981;SDS011;3018;48.730;9.336;2023-02-15T07:46:43;30.25;;;16.95;;
5981;SDS011;3018;48.730;9.336;2023-02-15T07:49:10;34.28;;;18.10;;
5981;SDS011;3018;48.730;9.336;2023-02-15T07:51:37;28.65;;;17.17;;
5981;SDS011;3018;48.730;9.336;2023-02-15T07:54:05;24.38;;;16.65;;
5981;SDS011;3018;48.730;9.336;2023-02-15T07:56:32;30.50;;;17.23;;
5981;SDS011;3018;48.730;9.336;2023-02-15T07:58:58;26.40;;;17.73;;
5981;SDS011;3018;48.730;9.336;2023-02-15T08:01:29;29.58;;;18.23;;
5981;SDS011;3018;48.730;9.336;2023-02-15T08:03:56;32.92;;;18.23;;
5981;SDS011;3018;48.730;9.336;2023-02-15T08:06:23;32.90;;;18.50;;
5981;SDS011;3018;48.730;9.336;2023-02-15T08:08:51;26.73;;;16.88;;
5981;SDS011;3018;48.730;9.336;2023-02-15T08:11:18;27.55;;;17.98;;
5981;SDS011;3018;48.730;9.336;2023-02-15T08:14:03;26.83;;;18.25;;
5981;SDS011;3018;48.730;9.336;2023-02-15T08:16:32;28.40;;;18.85;;
5981;SDS011;3018;48.730;9.336;2023-02-15T08:18:59;29.75;;;19.42;;
5981;SDS011;3018;48.730;9.336;2023-02-15T08:21:26;33.15;;;19.65;;
5981;SDS011;3018;48.730;9.336;2023-02-15T08:23:54;31.83;;;19.17;;
5981;SDS011;3018;48.730;9.336;2023-02-15T08:26:20;36.00;;;19.00;;
5981;SDS011;3018;48.730;9.336;2023-02-15T08:28:47;34.55;;;19.65;;
5981;SDS011;3018;48.730;9.336;2023-02-15T08:31:14;30.90;;;19.00;;
5981;SDS011;3018;48.730;9.336;2023-02-15T08:33:40;37.97;;;20.23;;
5981;SDS011;3018;48.730;9.336;2023-02-15T08:36:07;28.80;;;18.77;;
5981;SDS011;3018;48.730;9.336;2023-02-15T08:38:34;31.30;;;19.23;;
5981;SDS011;3018;48.730;9.336;2023-02-15T08:41:09;27.70;;;17.52;;
5981;SDS011;3018;48.730;9.336;2023-02-15T08:43:36;29.25;;;18.38;;
5981;SDS011;3018;48.730;9.336;2023-02-15T08:46:02;29.73;;;17.50;;
5981;SDS011;3018;48.730;9.336;2023-02-15T08:48:28;27.80;;;17.33;;
5981;SDS011;3018;48.730;9.336;2023-02-15T08:50:54;31.40;;;18.35;;
5981;SDS011;3018;48.730;9.336;2023-02-15T08:53:21;30.55;;;17.42;;
5981;SDS011;3018;48.730;9.336;2023-02-15T08:55:47;26.42;;;18.08;;
5981;SDS011;3018;48.730;9.336;2023-02-15T08:58:17;25.27;;;16.98;;
5981;SDS011;3018;48.730;9.336;2023-02-15T09:00:43;27.20;;;17.60;;
5981;SDS011;3018;48.730;9.336;2023-02-15T09:03:10;25.70;;;16.77;;
5981;SDS011;3018;48.730;9.336;2023-02-15T09:05:36;24.95;;;16.77;;
5981;SDS011;3018;48.730;9.336;2023-02-15T09:08:02;22.67;;;16.58;;
5981;SDS011;3018;48.730;9.336;2023-02-15T09:10:29;26.88;;;18.08;;
5981;SDS011;3018;48.730;9.336;2023-02-15T09:12:55;25.20;;;17.67;;
5981;SDS011;3018;48.730;9.336;2023-02-15T09:15:22;22.70;;;16.30;;
5981;SDS011;3018;48.730;9.336;2023-02-15T09:17:49;24.23;;;16.23;;
5981;SDS011;3018;48.730;9.336;2023-02-15T09:20:15;23.75;;;15.98;;
5981;SDS011;3018;48.730;9.336;2023-02-15T09:22:41;22.05;;;16.25;;
5981;SDS011;3018;48.730;9.336;2023-02-15T09:25:07;23.42;;;16.40;;
5981;SDS011;3018;48.730;9.336;2023-02-15T09:27:34;24.27;;;15.98;;
5981;SDS011;3018;48.730;9.336;2023-02-15T09:30:01;23.80;;;15.93;;
5981;SDS011;3018;48.730;9.336;2023-02-15T09:32:29;23.67;;;16.60;;
5981;SDS011;3018;48.730;9.336;2023-02-15T09:34:55;27.30;;;15.93;;
5981;SDS011;3018;48.730;9.336;2023-02-15T09:37:21;20.58;;;15.57;;
5981;SDS011;3018;48.730;9.336;2023-02-15T09:39:47;20.73;;;15.43;;
5981;SDS011;3018;48.730;9.336;2023-02-15T09:42:29;19.88;;;15.68;;
5981;SDS011;3018;48.730;9.336;2023-02-15T09:45:02;25.98;;;16.25;;
5981;SDS011;3018;48.730;9.336;2023-02-15T09:47:50;25.02;;;15.68;;
5981;SDS011;3018;48.730;9.336;2023-02-15T09:50:22;23.92;;;15.27;;
5981;SDS011;3018;48.730;9.336;2023-02-15T09:52:53;20.67;;;15.63;;
5981;SDS011;3018;48.730;9.336;2023-02-15T09:55:30;23.70;;;15.98;;
5981;SDS011;3018;48.730;9.336;2023-02-15T09:58:01;25.73;;;16.67;;
5981;SDS011;3018;48.730;9.336;2023-02-15T10:00:30;23.70;;;16.27;;
5981;SDS011;3018;48.730;9.336;2023-02-15T10:03:11;23.13;;;16.02;;
5981;SDS011;3018;48.730;9.336;2023-02-15T10:05:43;26.15;;;16.45;;
5981;SDS011;3018;48.730;9.336;2023-02-15T10:08:21;24.10;;;16.45;;
5981;SDS011;3018;48.730;9.336;2023-02-15T10:10:52;23.20;;;16.08;;
5981;SDS011;3018;48.730;9.336;2023-02-15T10:13:24;22.60;;;16.05;;
5981;SDS011;3018;48.730;9.336;2023-02-15T10:15:57;24.67;;;16.48;;
5981;SDS011;3018;48.730;9.336;2023-02-15T10:18:38;27.70;;;15.68;;
5981;SDS011;3018;48.730;9.336;2023-02-15T10:21:07;27.25;;;16.42;;
5981;SDS011;3018;48.730;9.336;2023-02-15T10:23:39;23.50;;;15.77;;
5981;SDS011;3018;48.730;9.336;2023-02-15T10:26:11;25.90;;;16.58;;
5981;SDS011;3018;48.730;9.336;2023-02-15T10:28:41;21.77;;;15.23;;
5981;SDS011;3018;48.730;9.336;2023-02-15T10:31:12;27.15;;;16.48;;
5981;SDS011;3018;48.730;9.336;2023-02-15T10:33:40;33.42;;;16.35;;
5981;SDS011;3018;48.730;9.336;2023-02-15T10:36:11;22.42;;;15.35;;
5981;SDS011;3018;48.730;9.336;2023-02-15T10:38:44;21.48;;;15.15;;
5981;SDS011;3018;48.730;9.336;2023-02-15T10:41:19;19.13;;;13.90;;
5981;SDS011;3018;48.730;9.336;2023-02-15T10:44:00;23.30;;;14.98;;
5981;SDS011;3018;48.730;9.336;2023-02-15T10:46:34;20.30;;;14.35;;
5981;SDS011;3018;48.730;9.336;2023-02-15T10:49:13;20.67;;;13.40;;
5981;SDS011;3018;48.730;9.336;2023-02-15T10:51:46;30.75;;;14.52;;
5981;SDS011;3018;48.730;9.336;2023-02-15T10:54:19;17.77;;;12.82;;
5981;SDS011;3018;48.730;9.336;2023-02-15T10:56:49;19.52;;;13.82;;
5981;SDS011;3018;48.730;9.336;2023-02-15T10:59:25;18.30;;;14.10;;
5981;SDS011;3018;48.730;9.336;2023-02-15T11:01:56;18.05;;;13.43;;
5981;SDS011;3018;48.730;9.336;2023-02-15T11:04:35;16.52;;;12.98;;
5981;SDS011;3018;48.730;9.336;2023-02-15T11:07:06;19.67;;;14.13;;
5981;SDS011;3018;48.730;9.336;2023-02-15T11:09:36;18.45;;;14.43;;
5981;SDS011;3018;48.730;9.336;2023-02-15T11:12:04;21.88;;;13.85;;
5981;SDS011;3018;48.730;9.336;2023-02-15T11:14:35;21.42;;;13.32;;
5981;SDS011;3018;48.730;9.336;2023-02-15T11:17:04;19.20;;;13.45;;
5981;SDS011;3018;48.730;9.336;2023-02-15T11:19:33;19.27;;;14.25;;
5981;SDS011;3018;48.730;9.336;2023-02-15T11:22:02;18.02;;;13.05;;
5981;SDS011;3018;48.730;9.336;2023-02-15T11:24:29;16.55;;;13.43;;
5981;SDS011;3018;48.730;9.336;2023-02-15T11:26:57;23.35;;;13.00;;
5981;SDS011;3018;48.730;9.336;2023-02-15T11:29:27;16.42;;;13.20;;
5981;SDS011;3018;48.730;9.336;2023-02-15T11:31:56;21.65;;;14.20;;
5981;SDS011;3018;48.730;9.336;2023-02-15T11:34:25;16.55;;;13.38;;
5981;SDS011;3018;48.730;9.336;2023-02-15T11:36:54;19.33;;;12.57;;
5981;SDS011;3018;48.730;9.336;2023-02-15T11:39:21;20.45;;;13.27;;
5981;SDS011;3018;48.730;9.336;2023-02-15T11:41:49;17.98;;;13.85;;
5981;SDS011;3018;48.730;9.336;2023-02-15T11:44:19;15.80;;;12.93;;
5981;SDS011;3018;48.730;9.336;2023-02-15T11:46:47;13.23;;;11.65;;
5981;SDS011;3018;48.730;9.336;2023-02-15T11:49:27;20.27;;;12.43;;
5981;SDS011;3018;48.730;9.336;2023-02-15T11:51:56;18.85;;;12.52;;
5981;SDS011;3018;48.730;9.336;2023-02-15T11:54:24;19.08;;;12.77;;
5981;SDS011;3018;48.730;9.336;2023-02-15T11:56:52;19.05;;;12.77;;
5981;SDS011;3018;48.730;9.336;2023-02-15T11:59:18;19.05;;;11.95;;
5981;SDS011;3018;48.730;9.336;2023-02-15T12:01:47;15.38;;;12.10;;
5981;SDS011;3018;48.730;9.336;2023-02-15T12:04:15;17.38;;;11.57;;
5981;SDS011;3018;48.730;9.336;2023-02-15T12:06:42;15.32;;;11.35;;
5981;SDS011;3018;48.730;9.336;2023-02-15T12:09:13;16.50;;;11.35;;
5981;SDS011;3018;48.730;9.336;2023-02-15T12:11:44;12.55;;;11.23;;
5981;SDS011;3018;48.730;9.336;2023-02-15T12:14:10;17.70;;;12.48;;
5981;SDS011;3018;48.730;9.336;2023-02-15T12:16:41;14.82;;;12.02;;
5981;SDS011;3018;48.730;9.336;2023-02-15T12:19:12;18.63;;;11.35;;
5981;SDS011;3018;48.730;9.336;2023-02-15T12:21:40;22.15;;;12.93;;
5981;SDS011;3018;48.730;9.336;2023-02-15T12:24:16;17.38;;;11.30;;
5981;SDS011;3018;48.730;9.336;2023-02-15T12:26:45;18.35;;;11.95;;
5981;SDS011;3018;48.730;9.336;2023-02-15T12:29:22;25.67;;;16.23;;
5981;SDS011;3018;48.730;9.336;2023-02-15T12:31:51;29.77;;;16.85;;
5981;SDS011;3018;48.730;9.336;2023-02-15T12:34:19;30.42;;;17.48;;
5981;SDS011;3018;48.730;9.336;2023-02-15T12:36:48;27.55;;;17.95;;
5981;SDS011;3018;48.730;9.336;2023-02-15T12:39:16;24.30;;;16.73;;
5981;SDS011;3018;48.730;9.336;2023-02-15T12:41:46;36.35;;;18.38;;
5981;SDS011;3018;48.730;9.336;2023-02-15T12:44:22;28.63;;;17.67;;
5981;SDS011;3018;48.730;9.336;2023-02-15T12:46:55;26.80;;;17.33;;
5981;SDS011;3018;48.730;9.336;2023-02-15T12:49:22;27.65;;;16.92;;
5981;SDS011;3018;48.730;9.336;2023-02-15T12:51:49;27.67;;;17.13;;
5981;SDS011;3018;48.730;9.336;2023-02-15T12:54:16;27.33;;;18.85;;
5981;SDS011;3018;48.730;9.336;2023-02-15T12:56:42;26.25;;;19.08;;
5981;SDS011;3018;48.730;9.336;2023-02-15T12:59:12;26.92;;;17.50;;
5981;SDS011;3018;48.730;9.336;2023-02-15T13:01:39;26.70;;;18.02;;
5981;SDS011;3018;48.730;9.336;2023-02-15T13:04:13;29.48;;;18.08;;
5981;SDS011;3018;48.730;9.336;2023-02-15T13:06:46;25.75;;;17.42;;
5981;SDS011;3018;48.730;9.336;2023-02-15T13:09:13;25.92;;;18.20;;
5981;SDS011;3018;48.730;9.336;2023-02-15T13:11:41;27.08;;;18.13;;
5981;SDS011;3018;48.730;9.336;2023-02-15T13:14:16;22.58;;;17.80;;
5981;SDS011;3018;48.730;9.336;2023-02-15T13:16:43;22.88;;;16.17;;
5981;SDS011;3018;48.730;9.336;2023-02-15T13:19:11;26.13;;;17.17;;
5981;SDS011;3018;48.730;9.336;2023-02-15T13:21:39;29.63;;;18.05;;
5981;SDS011;3018;48.730;9.336;2023-02-15T13:24:10;28.58;;;16.85;;
5981;SDS011;3018;48.730;9.336;2023-02-15T13:26:39;25.60;;;16.77;;
5981;SDS011;3018;48.730;9.336;2023-02-15T13:29:11;23.55;;;16.73;;
5981;SDS011;3018;48.730;9.336;2023-02-15T13:31:40;33.20;;;18.70;;
5981;SDS011;3018;48.730;9.336;2023-02-15T13:34:07;27.85;;;17.65;;
5981;SDS011;3018;48.730;9.336;2023-02-15T13:36:37;26.20;;;18.38;;
5981;SDS011;3018;48.730;9.336;2023-02-15T13:39:11;29.88;;;17.75;;
5981;SDS011;3018;48.730;9.336;2023-02-15T13:41:45;22.20;;;15.98;;
5981;SDS011;3018;48.730;9.336;2023-02-15T13:44:15;22.30;;;16.20;;
5981;SDS011;3018;48.730;9.336;2023-02-15T13:46:52;27.63;;;18.13;;
5981;SDS011;3018;48.730;9.336;2023-02-15T13:49:27;32.42;;;17.65;;
5981;SDS011;3018;48.730;9.336;2023-02-15T13:52:00;27.80;;;18.67;;
5981;SDS011;3018;48.730;9.336;2023-02-15T13:54:32;27.52;;;17.90;;
5981;SDS011;3018;48.730;9.336;2023-02-15T13:57:03;27.63;;;17.23;;
5981;SDS011;3018;48.730;9.336;2023-02-15T13:59:41;29.17;;;19.45;;
5981;SDS011;3018;48.730;9.336;2023-02-15T14:02:24;31.63;;;19.42;;
5981;SDS011;3018;48.730;9.336;2023-02-15T14:04:58;29.88;;;19.42;;
5981;SDS011;3018;48.730;9.336;2023-02-15T14:07:33;32.28;;;19.48;;
5981;SDS011;3018;48.730;9.336;2023-02-15T14:10:09;33.95;;;20.10;;
5981;SDS011;3018;48.730;9.336;2023-02-15T14:12:45;28.20;;;18.73;;
5981;SDS011;3018;48.730;9.336;2023-02-15T14:15:18;31.05;;;18.25;;
5981;SDS011;3018;48.730;9.336;2023-02-15T14:17:50;26.95;;;18.17;;
5981;SDS011;3018;48.730;9.336;2023-02-15T14:20:22;28.77;;;18.60;;
5981;SDS011;3018;48.730;9.336;2023-02-15T14:22:51;32.05;;;18.75;;
5981;SDS011;3018;48.730;9.336;2023-02-15T14:25:20;25.15;;;18.73;;
5981;SDS011;3018;48.730;9.336;2023-02-15T14:27:54;25.02;;;17.23;;
5981;SDS011;3018;48.730;9.336;2023-02-15T14:30:22;30.00;;;18.88;;
5981;SDS011;3018;48.730;9.336;2023-02-15T14:32:51;25.35;;;18.73;;
5981;SDS011;3018;48.730;9.336;2023-02-15T14:35:19;29.13;;;19.10;;
5981;SDS011;3018;48.730;9.336;2023-02-15T14:37:46;36.97;;;20.15;;
5981;SDS011;3018;48.730;9.336;2023-02-15T14:40:17;33.58;;;19.80;;
5981;SDS011;3018;48.730;9.336;2023-02-15T14:43:05;28.38;;;19.20;;
5981;SDS011;3018;48.730;9.336;2023-02-15T14:45:34;30.33;;;18.65;;
5981;SDS011;3018;48.730;9.336;2023-02-15T14:48:10;30.92;;;19.98;;
5981;SDS011;3018;48.730;9.336;2023-02-15T14:50:42;29.10;;;19.20;;
5981;SDS011;3018;48.730;9.336;2023-02-15T14:56:06;34.38;;;19.27;;
5981;SDS011;3018;48.730;9.336;2023-02-15T14:58:33;34.75;;;20.15;;
5981;SDS011;3018;48.730;9.336;2023-02-15T15:01:03;29.10;;;18.38;;
5981;SDS011;3018;48.730;9.336;2023-02-15T15:03:32;27.08;;;18.73;;
5981;SDS011;3018;48.730;9.336;2023-02-15T15:05:58;27.08;;;18.35;;